Time;durP1;ratioP1;P1;durP2;ratioP2;P2;SDS_P1;SDS_P2;PMS_P1;PMS_P2;Temp;Humidity;BMP_temperature;BMP_pressure;BME280_temperature;BME280_humidity;BME280_pressure;Samples;Min_cycle;Max_cycle;Signal;HPM_P1;HPM_P2
2023/04/20 00:02:02;;;;;;;2.23;2.07;;;14.90;80.50;;;;;;4999516;28;20208;-61
2023/04/20 00:04:30;;;;;;;3.07;1.80;;;14.90;80.80;;;;;;5002851;28;20208;-61
2023/04/20 00:06:57;;;;;;;4.00;2.07;;;14.90;80.90;;;;;;5001472;28;20231;-61
2023/04/20 00:09:25;;;;;;;1.77;1.50;;;14.90;81.10;;;;;;5005864;28;20275;-61
2023/04/20 00:11:52;;;;;;;3.07;1.80;;;14.90;81.00;;;;;;5001135;28;20209;-61
2023/04/20 00:14:19;;;;;;;2.30;1.70;;;14.90;81.10;;;;;;5010925;28;20279;-61
2023/04/20 00:16:47;;;;;;;2.53;1.60;;;14.90;81.10;;;;;;5010698;28;20211;-64
2023/04/20 00:19:14;;;;;;;3.67;2.03;;;14.80;80.90;;;;;;5008511;28;20216;-61
2023/04/20 00:21:42;;;;;;;1.70;1.60;;;14.90;80.90;;;;;;5002286;28;20239;-61
2023/04/20 00:24:09;;;;;;;1.80;1.70;;;14.80;80.70;;;;;;5002665;28;20213;-61
2023/04/20 00:26:36;;;;;;;2.40;1.90;;;14.90;80.50;;;;;;5003966;28;20228;-61
2023/04/20 00:29:02;;;;;;;1.37;1.27;;;14.80;80.70;;;;;;5009901;28;20301;-61
2023/04/20 00:31:30;;;;;;;1.87;1.67;;;14.90;81.10;;;;;;5037151;28;20214;-61
2023/04/20 00:33:57;;;;;;;1.63;1.53;;;14.80;81.00;;;;;;5010852;28;20219;-61
2023/04/20 00:36:26;;;;;;;1.60;1.50;;;14.80;81.20;;;;;;5005428;28;20211;-61
2023/04/20 00:38:53;;;;;;;3.60;1.63;;;14.80;81.20;;;;;;5005501;28;20204;-61
2023/04/20 00:41:20;;;;;;;1.70;1.60;;;14.80;81.30;;;;;;5002712;28;20222;-62
2023/04/20 00:43:53;;;;;;;3.40;2.10;;;14.80;81.30;;;;;;5008709;28;20236;-61
2023/04/20 00:46:21;;;;;;;3.27;2.13;;;14.90;81.40;;;;;;5003830;28;20328;-61
2023/04/20 00:48:53;;;;;;;2.30;2.10;;;14.80;81.40;;;;;;5042594;28;20216;-61
2023/04/20 00:51:21;;;;;;;3.20;2.30;;;14.90;81.00;;;;;;5009980;28;20649;-61
2023/04/20 00:53:48;;;;;;;2.87;2.67;;;14.90;80.70;;;;;;5005047;28;20196;-61
2023/04/20 00:56:15;;;;;;;3.67;3.07;;;14.90;80.50;;;;;;5012294;28;20536;-61
2023/04/20 00:58:42;;;;;;;3.00;2.67;;;14.90;80.00;;;;;;5000465;28;20638;-61
2023/04/20 01:01:10;;;;;;;3.43;3.13;;;14.90;79.40;;;;;;5004565;28;20647;-61
2023/04/20 01:03:41;;;;;;;2.80;2.60;;;14.90;79.40;;;;;;5007077;28;20220;-61
2023/04/20 01:06:08;;;;;;;4.53;2.97;;;14.90;79.10;;;;;;5002484;28;20279;-61
2023/04/20 01:08:47;;;;;;;2.83;2.53;;;14.90;79.00;;;;;;5003317;28;20208;-61
2023/04/20 01:11:14;;;;;;;2.90;2.50;;;14.80;78.80;;;;;;5000197;28;20704;-61
2023/04/20 01:13:42;;;;;;;2.57;2.37;;;14.80;78.60;;;;;;5004673;28;20197;-61
2023/04/20 01:16:10;;;;;;;3.20;3.00;;;14.80;78.60;;;;;;5001105;28;20196;-61
2023/04/20 01:18:43;;;;;;;3.07;2.70;;;14.80;78.60;;;;;;5010399;28;20615;-61
2023/04/20 01:21:11;;;;;;;5.77;2.93;;;14.80;78.60;;;;;;5003447;28;20201;-61
2023/04/20 01:23:38;;;;;;;3.30;3.00;;;14.80;78.70;;;;;;5009676;28;20302;-61
2023/04/20 01:26:07;;;;;;;3.83;3.00;;;14.80;78.80;;;;;;5004494;28;20231;-61
2023/04/20 01:28:34;;;;;;;3.00;2.80;;;14.80;78.80;;;;;;5003721;28;20250;-61
2023/04/20 01:31:03;;;;;;;4.23;3.10;;;14.80;79.00;;;;;;4999391;28;20206;-61
2023/04/20 01:33:31;;;;;;;4.57;2.70;;;14.80;78.70;;;;;;5003925;28;20188;-61
2023/04/20 01:35:58;;;;;;;4.17;3.47;;;14.80;78.80;;;;;;5012335;28;20579;-61
2023/04/20 01:38:25;;;;;;;3.80;3.00;;;14.80;79.00;;;;;;5009162;28;20193;-61
2023/04/20 01:40:53;;;;;;;4.57;3.30;;;14.70;79.00;;;;;;5042185;28;20228;-60
2023/04/20 01:43:21;;;;;;;3.63;3.33;;;14.70;79.20;;;;;;5008279;28;20250;-61
2023/04/20 01:45:48;;;;;;;6.53;4.03;;;14.70;79.20;;;;;;5009106;28;20245;-61
2023/04/20 01:48:15;;;;;;;3.87;3.47;;;14.70;79.20;;;;;;5013342;28;20239;-61
2023/04/20 01:50:42;;;;;;;3.73;3.30;;;14.60;79.10;;;;;;5007824;28;20232;-61
2023/04/20 01:53:12;;;;;;;4.73;3.40;;;14.60;79.30;;;;;;5012532;28;20704;-61
2023/04/20 01:55:40;;;;;;;3.67;3.20;;;14.60;79.50;;;;;;5008120;28;20208;-61
2023/04/20 01:58:06;;;;;;;2.87;2.67;;;14.50;79.70;;;;;;5008549;28;20645;-61
2023/04/20 02:00:34;;;;;;;3.13;2.83;;;14.40;79.90;;;;;;5044906;28;20238;-61
2023/04/20 02:03:01;;;;;;;3.07;2.77;;;14.40;80.20;;;;;;5011150;28;20202;-61
2023/04/20 02:05:28;;;;;;;4.27;3.27;;;14.30;80.40;;;;;;5008571;28;20213;-61
2023/04/20 02:07:56;;;;;;;4.03;3.13;;;14.30;80.80;;;;;;5007505;28;20214;-61
2023/04/20 02:10:24;;;;;;;8.07;3.03;;;14.20;81.00;;;;;;5009524;28;20218;-61
2023/04/20 02:12:51;;;;;;;6.80;3.20;;;14.20;81.20;;;;;;5012758;28;20717;-61
2023/04/20 02:15:18;;;;;;;4.40;3.10;;;14.10;81.50;;;;;;5036599;28;20655;-61
2023/04/20 02:17:45;;;;;;;3.67;2.90;;;14.10;81.70;;;;;;5015185;28;20268;-61
2023/04/20 02:20:13;;;;;;;4.27;2.80;;;14.00;82.00;;;;;;5007208;28;20206;-62
2023/04/20 02:22:40;;;;;;;3.77;3.20;;;14.00;82.20;;;;;;5009552;28;20261;-61
2023/04/20 02:25:08;;;;;;;4.00;3.13;;;14.00;82.50;;;;;;5006756;28;20263;-61
2023/04/20 02:27:36;;;;;;;3.90;3.33;;;13.90;82.60;;;;;;5008180;28;20254;-60
2023/04/20 02:30:05;;;;;;;3.67;3.37;;;13.90;82.60;;;;;;5012775;28;20219;-61
2023/04/20 02:32:32;;;;;;;3.33;3.03;;;13.80;82.70;;;;;;5022716;28;20563;-61
2023/04/20 02:34:59;;;;;;;3.47;2.80;;;13.70;82.90;;;;;;5008162;28;20214;-61
2023/04/20 02:37:26;;;;;;;3.23;2.93;;;13.70;83.10;;;;;;5003320;28;20197;-61
2023/04/20 02:39:53;;;;;;;3.67;3.17;;;13.70;83.40;;;;;;5003470;28;20208;-61
2023/04/20 02:42:20;;;;;;;3.67;3.00;;;13.60;83.50;;;;;;5003631;28;20204;-61
2023/04/20 02:44:48;;;;;;;3.47;3.13;;;13.60;83.70;;;;;;5035805;28;20301;-61
2023/04/20 02:47:15;;;;;;;5.60;3.20;;;13.50;83.60;;;;;;5041295;28;20223;-61
2023/04/20 02:49:43;;;;;;;4.73;3.33;;;13.50;83.90;;;;;;5036323;28;20297;-61
2023/04/20 02:52:10;;;;;;;7.37;3.67;;;13.40;84.10;;;;;;5018396;28;20242;-61
2023/04/20 02:54:37;;;;;;;5.43;3.23;;;13.40;84.30;;;;;;5011603;28;20207;-61
2023/04/20 02:57:04;;;;;;;3.50;3.20;;;13.40;84.50;;;;;;5033246;28;20204;-61
2023/04/20 02:59:32;;;;;;;4.13;3.30;;;13.30;84.70;;;;;;5003157;28;20299;-60
2023/04/20 03:02:04;;;;;;;3.60;3.20;;;13.30;85.00;;;;;;5007840;28;20257;-60
2023/04/20 03:04:32;;;;;;;4.27;3.87;;;13.30;85.10;;;;;;5037461;28;20207;-61
2023/04/20 03:07:11;;;;;;;4.43;3.20;;;13.30;85.30;;;;;;5014423;28;20253;-60
2023/04/20 03:09:42;;;;;;;5.67;3.90;;;13.30;85.40;;;;;;5018249;28;20204;-61
2023/04/20 03:12:18;;;;;;;6.00;3.50;;;13.30;85.30;;;;;;5012562;28;20285;-61
2023/04/20 03:15:05;;;;;;;7.60;3.67;;;13.30;85.20;;;;;;5023225;28;20211;-61
2023/04/20 03:17:55;;;;;;;4.17;3.20;;;13.30;85.20;;;;;;5006380;28;20212;-61
2023/04/20 03:20:23;;;;;;;3.77;3.37;;;13.30;85.40;;;;;;5035320;28;20258;-61
2023/04/20 03:22:50;;;;;;;5.03;3.33;;;13.30;85.50;;;;;;5010252;28;20257;-61
2023/04/20 03:25:20;;;;;;;7.23;4.23;;;13.30;85.50;;;;;;5010555;28;20699;-61
2023/04/20 03:27:52;;;;;;;9.13;4.17;;;13.20;85.30;;;;;;5008226;28;20247;-61
2023/04/20 03:30:20;;;;;;;5.07;3.93;;;13.20;85.20;;;;;;5035651;28;20204;-61
2023/04/20 03:32:53;;;;;;;4.47;3.83;;;13.10;85.10;;;;;;5011791;28;20214;-61
2023/04/20 03:35:20;;;;;;;4.97;4.27;;;13.10;85.10;;;;;;5011345;28;20300;-63
2023/04/20 03:37:47;;;;;;;3.60;3.30;;;13.00;85.40;;;;;;5002522;28;20229;-61
2023/04/20 03:40:14;;;;;;;5.10;4.43;;;13.00;85.70;;;;;;5010632;28;20200;-61
2023/04/20 03:42:41;;;;;;;4.33;3.93;;;12.90;85.90;;;;;;5004384;28;20721;-61
2023/04/20 03:45:09;;;;;;;4.90;4.40;;;12.80;85.90;;;;;;5005521;28;20247;-61
2023/04/20 03:47:36;;;;;;;4.33;3.93;;;12.80;86.10;;;;;;5011393;28;20775;-61
2023/04/20 03:50:05;;;;;;;4.70;4.13;;;12.80;86.30;;;;;;5012321;28;20204;-61
2023/04/20 03:52:32;;;;;;;4.53;3.63;;;12.80;86.50;;;;;;4998886;28;20203;-61
2023/04/20 03:55:03;;;;;;;4.43;4.03;;;12.70;86.50;;;;;;5011806;28;20642;-63
2023/04/20 03:57:32;;;;;;;4.20;3.80;;;12.70;86.60;;;;;;5016364;28;20247;-61
2023/04/20 04:00:02;;;;;;;4.77;3.93;;;12.70;86.70;;;;;;5001052;28;20203;-61
2023/04/20 04:02:44;;;;;;;5.07;3.77;;;12.60;86.70;;;;;;5015979;28;20250;-61
2023/04/20 04:05:13;;;;;;;4.73;4.03;;;12.60;86.70;;;;;;5010600;28;20210;-61
2023/04/20 04:07:41;;;;;;;6.37;3.90;;;12.50;86.70;;;;;;5032685;28;20214;-61
2023/04/20 04:10:09;;;;;;;7.13;4.37;;;12.50;86.70;;;;;;4995001;28;20214;-61
2023/04/20 04:12:37;;;;;;;4.10;3.70;;;12.50;86.80;;;;;;4984442;28;20747;-61
2023/04/20 04:15:07;;;;;;;4.50;4.10;;;12.40;86.90;;;;;;5029261;28;20200;-61
2023/04/20 04:17:40;;;;;;;4.07;3.67;;;12.40;86.80;;;;;;5012030;28;20222;-61
2023/04/20 04:20:08;;;;;;;5.83;4.30;;;12.30;86.70;;;;;;5020546;28;20199;-61
2023/04/20 04:22:36;;;;;;;5.40;4.33;;;12.30;86.90;;;;;;5034704;28;20200;-61
2023/04/20 04:25:29;;;;;;;6.53;4.90;;;12.20;87.20;;;;;;5003980;28;20223;-61
2023/04/20 04:27:57;;;;;;;8.63;4.43;;;12.20;87.60;;;;;;5026942;28;20215;-61
2023/04/20 04:30:28;;;;;;;8.47;4.93;;;12.10;88.00;;;;;;5023751;28;20223;-61
2023/04/20 04:32:55;;;;;;;4.67;4.17;;;12.10;88.50;;;;;;5004255;28;20234;-61
2023/04/20 04:35:22;;;;;;;7.03;4.07;;;12.10;88.80;;;;;;5019899;28;20519;-62
2023/04/20 04:37:51;;;;;;;5.10;4.33;;;12.10;88.80;;;;;;5004535;28;20711;-61
2023/04/20 04:40:18;;;;;;;4.07;3.63;;;12.10;89.20;;;;;;5009959;28;20218;-61
2023/04/20 04:42:50;;;;;;;6.47;3.70;;;12.00;88.40;;;;;;5009116;28;20217;-61
2023/04/20 04:45:17;;;;;;;4.80;4.30;;;12.00;88.00;;;;;;5025364;28;20273;-61
2023/04/20 04:47:45;;;;;;;14.83;4.50;;;12.00;88.00;;;;;;5011339;28;20227;-61
2023/04/20 04:50:12;;;;;;;6.07;4.27;;;12.00;88.10;;;;;;5006264;28;20608;-61
2023/04/20 04:52:39;;;;;;;4.90;4.00;;;12.00;88.40;;;;;;5033017;28;20199;-61
2023/04/20 04:55:08;;;;;;;5.10;3.83;;;12.00;88.70;;;;;;5010552;28;20211;-61
2023/04/20 04:57:37;;;;;;;7.70;4.03;;;12.10;88.80;;;;;;5004477;28;20207;-61
2023/04/20 05:00:10;;;;;;;5.60;3.80;;;12.10;88.90;;;;;;5001474;28;20583;-61
2023/04/20 05:02:38;;;;;;;5.37;4.10;;;12.20;88.70;;;;;;5021804;28;20212;-62
2023/04/20 05:05:09;;;;;;;4.20;3.57;;;12.20;88.50;;;;;;5019305;28;20220;-60
2023/04/20 05:07:37;;;;;;;4.20;3.63;;;12.20;88.40;;;;;;5001910;28;20225;-61
2023/04/20 05:10:06;;;;;;;4.10;3.67;;;12.20;88.50;;;;;;5005821;28;20194;-61
2023/04/20 05:12:33;;;;;;;5.47;4.03;;;12.20;88.70;;;;;;5003944;28;20254;-61
2023/04/20 05:15:00;;;;;;;5.30;4.43;;;12.20;88.80;;;;;;5006704;28;20212;-61
2023/04/20 05:17:28;;;;;;;4.20;3.80;;;12.20;88.90;;;;;;5006900;28;20196;-61
2023/04/20 05:19:55;;;;;;;5.93;4.77;;;12.30;89.20;;;;;;5007371;28;20209;-61
2023/04/20 05:22:23;;;;;;;5.67;4.47;;;12.30;89.00;;;;;;5001260;28;20199;-62
2023/04/20 05:24:50;;;;;;;5.33;4.63;;;12.40;88.90;;;;;;5006401;28;20295;-61
2023/04/20 05:27:17;;;;;;;5.20;4.70;;;12.40;89.00;;;;;;5002157;28;20504;-61
2023/04/20 05:29:44;;;;;;;4.83;4.37;;;12.40;89.40;;;;;;4999960;28;20251;-61
2023/04/20 05:32:11;;;;;;;4.73;4.30;;;12.50;90.00;;;;;;5006418;28;20222;-61
2023/04/20 05:34:38;;;;;;;6.97;4.50;;;12.60;90.10;;;;;;5016457;28;20228;-61
2023/04/20 05:37:05;;;;;;;8.37;5.00;;;12.70;90.20;;;;;;5000855;28;20262;-61
2023/04/20 05:39:32;;;;;;;6.23;4.50;;;12.80;90.30;;;;;;5003662;28;20231;-61
2023/04/20 05:41:59;;;;;;;5.33;4.60;;;12.90;90.40;;;;;;5002512;28;20664;-61
2023/04/20 05:44:26;;;;;;;7.07;4.27;;;13.10;90.40;;;;;;5001540;28;20276;-61
2023/04/20 05:46:53;;;;;;;7.93;4.23;;;13.20;90.40;;;;;;5008358;28;20301;-61
2023/04/20 05:49:20;;;;;;;6.40;4.97;;;13.40;90.30;;;;;;5001950;28;20235;-61
2023/04/20 05:51:47;;;;;;;7.37;5.90;;;13.50;90.40;;;;;;5003769;28;20287;-61
2023/04/20 05:54:14;;;;;;;12.70;9.00;;;13.70;90.50;;;;;;4998946;28;20207;-61
2023/04/20 05:56:41;;;;;;;12.57;8.40;;;13.90;90.40;;;;;;5002008;28;20203;-61
2023/04/20 05:59:08;;;;;;;9.37;8.00;;;14.10;90.60;;;;;;5006275;28;20209;-61
2023/04/20 06:01:35;;;;;;;10.23;8.33;;;14.30;90.20;;;;;;4998948;28;20202;-61
2023/04/20 06:04:02;;;;;;;9.80;7.57;;;14.40;90.10;;;;;;5006009;28;20203;-61
2023/04/20 06:06:29;;;;;;;10.43;8.80;;;14.60;90.00;;;;;;5001792;28;20218;-61
2023/04/20 06:08:57;;;;;;;9.63;8.57;;;14.60;89.90;;;;;;5033157;28;20589;-61
2023/04/20 06:11:24;;;;;;;11.53;9.27;;;14.70;89.80;;;;;;5000163;28;20206;-61
2023/04/20 06:13:51;;;;;;;11.63;9.40;;;14.70;89.80;;;;;;4997518;28;20575;-61
2023/04/20 06:16:18;;;;;;;10.30;8.67;;;14.80;89.80;;;;;;5007724;28;20208;-61
2023/04/20 06:18:45;;;;;;;12.63;8.87;;;14.80;89.90;;;;;;5001902;28;20598;-61
2023/04/20 06:21:12;;;;;;;10.23;8.27;;;14.80;90.00;;;;;;5006619;28;20538;-61
2023/04/20 06:23:39;;;;;;;9.93;8.23;;;14.90;90.20;;;;;;5005390;28;20200;-61
2023/04/20 06:26:07;;;;;;;9.03;7.90;;;15.00;90.20;;;;;;5005310;28;20266;-61
2023/04/20 06:28:35;;;;;;;9.53;8.50;;;15.20;90.10;;;;;;5005220;28;20231;-61
2023/04/20 06:31:03;;;;;;;10.67;8.93;;;15.40;90.10;;;;;;5012043;28;20203;-61
2023/04/20 06:33:30;;;;;;;10.30;8.70;;;15.50;89.80;;;;;;5004377;28;20208;-62
2023/04/20 06:35:58;;;;;;;9.57;8.37;;;15.60;89.60;;;;;;5008887;28;20587;-61
2023/04/20 06:38:24;;;;;;;9.83;8.00;;;15.70;89.50;;;;;;5009565;28;20200;-61
2023/04/20 06:40:51;;;;;;;10.33;8.17;;;15.80;89.40;;;;;;5016368;28;20207;-61
2023/04/20 06:43:18;;;;;;;9.30;8.20;;;15.80;89.30;;;;;;5004375;28;20240;-61
2023/04/20 06:45:45;;;;;;;8.93;7.17;;;15.80;89.20;;;;;;5005501;28;20243;-61
2023/04/20 06:48:12;;;;;;;9.03;7.67;;;15.80;88.70;;;;;;5013550;28;20276;-61
2023/04/20 06:50:57;;;;;;;8.50;7.57;;;15.80;88.80;;;;;;5002722;28;20204;-61
2023/04/20 06:53:25;;;;;;;8.57;6.60;;;15.70;89.00;;;;;;5024806;28;20199;-61
2023/04/20 06:55:55;;;;;;;7.13;5.67;;;15.80;89.40;;;;;;5014675;28;20283;-61
2023/04/20 06:58:22;;;;;;;7.07;5.80;;;15.80;90.10;;;;;;5005045;28;20255;-61
2023/04/20 07:00:49;;;;;;;6.27;5.47;;;15.90;89.70;;;;;;5008671;28;20219;-61
2023/04/20 07:03:17;;;;;;;8.60;5.20;;;16.00;89.50;;;;;;5006802;28;20250;-61
2023/04/20 07:05:45;;;;;;;7.07;5.30;;;16.00;89.30;;;;;;5004460;28;20195;-61
2023/04/20 07:08:14;;;;;;;6.33;5.47;;;16.10;89.00;;;;;;5007092;28;20216;-61
2023/04/20 07:10:41;;;;;;;7.33;5.93;;;16.10;88.90;;;;;;5008050;28;20207;-61
2023/04/20 07:13:08;;;;;;;8.17;5.43;;;16.20;88.30;;;;;;5008243;28;20208;-61
2023/04/20 07:15:35;;;;;;;7.93;6.03;;;16.20;88.10;;;;;;5001054;28;20197;-61
2023/04/20 07:18:02;;;;;;;6.53;5.83;;;16.20;88.20;;;;;;5007779;28;20198;-61
2023/04/20 07:20:30;;;;;;;6.53;5.67;;;16.30;88.60;;;;;;5005133;28;20213;-61
2023/04/20 07:22:57;;;;;;;7.20;4.90;;;16.50;88.60;;;;;;5002764;28;20289;-62
2023/04/20 07:25:24;;;;;;;7.93;5.43;;;16.70;87.30;;;;;;5002794;28;20634;-61
2023/04/20 07:27:51;;;;;;;7.50;6.03;;;16.90;87.00;;;;;;5006623;28;20219;-61
2023/04/20 07:30:18;;;;;;;6.90;6.20;;;17.00;85.70;;;;;;5004476;28;20219;-61
2023/04/20 07:32:45;;;;;;;6.83;5.23;;;17.10;85.00;;;;;;5006814;28;20217;-61
2023/04/20 07:35:12;;;;;;;8.70;4.90;;;17.10;85.00;;;;;;5003526;28;20246;-61
2023/04/20 07:37:40;;;;;;;5.23;4.53;;;17.20;84.20;;;;;;5007608;28;20228;-61
2023/04/20 07:40:08;;;;;;;6.93;5.00;;;17.20;83.80;;;;;;5013503;28;20297;-61
2023/04/20 07:42:35;;;;;;;6.17;4.53;;;17.20;83.50;;;;;;5001721;28;20207;-61
2023/04/20 07:45:04;;;;;;;5.30;4.10;;;17.20;83.60;;;;;;5004996;28;20318;-61
2023/04/20 07:47:33;;;;;;;5.60;4.70;;;17.10;82.70;;;;;;5005125;28;20255;-61
2023/04/20 07:50:00;;;;;;;7.63;5.07;;;17.10;82.90;;;;;;5002157;28;20232;-61
2023/04/20 07:52:27;;;;;;;7.53;4.20;;;17.00;83.60;;;;;;5006233;28;20195;-61
2023/04/20 07:54:56;;;;;;;6.53;4.57;;;17.00;82.80;;;;;;5006595;28;20206;-61
2023/04/20 07:57:27;;;;;;;5.70;4.57;;;16.90;83.10;;;;;;5004259;28;20200;-61
2023/04/20 07:59:55;;;;;;;7.37;3.83;;;16.80;84.10;;;;;;5006915;28;20638;-61
2023/04/20 08:02:23;;;;;;;4.47;3.83;;;16.90;84.00;;;;;;5000719;28;20208;-61
2023/04/20 08:04:50;;;;;;;5.20;4.43;;;16.90;84.20;;;;;;5004522;28;20207;-61
2023/04/20 08:07:17;;;;;;;8.27;4.60;;;16.90;83.90;;;;;;5005280;28;20220;-61
2023/04/20 08:09:44;;;;;;;5.30;4.77;;;16.90;83.80;;;;;;5009534;28;20208;-61
2023/04/20 08:12:11;;;;;;;6.63;4.87;;;17.00;84.00;;;;;;5002376;28;20633;-61
2023/04/20 08:14:40;;;;;;;7.13;4.33;;;17.10;83.20;;;;;;5003542;28;20630;-61
2023/04/20 08:17:07;;;;;;;7.37;4.80;;;17.10;83.10;;;;;;5009128;28;20643;-61
2023/04/20 08:19:35;;;;;;;5.97;4.93;;;17.10;82.60;;;;;;5004759;28;20206;-61
2023/04/20 08:22:02;;;;;;;6.30;4.20;;;17.10;82.90;;;;;;5001259;28;20501;-61
2023/04/20 08:24:29;;;;;;;11.77;5.63;;;17.20;82.30;;;;;;5008949;28;20204;-61
2023/04/20 08:26:57;;;;;;;10.70;5.37;;;17.20;82.30;;;;;;5005493;28;20297;-61
2023/04/20 08:29:25;;;;;;;8.27;5.23;;;17.30;82.80;;;;;;5002230;28;20221;-61
2023/04/20 08:31:52;;;;;;;7.70;5.77;;;17.40;82.50;;;;;;5006230;28;20201;-61
2023/04/20 08:34:19;;;;;;;7.37;6.10;;;17.40;81.00;;;;;;4999486;28;20482;-61
2023/04/20 08:36:46;;;;;;;7.80;4.57;;;17.50;81.80;;;;;;5005389;28;20283;-60
2023/04/20 08:39:19;;;;;;;6.10;5.00;;;17.80;82.50;;;;;;5004114;28;20238;-61
2023/04/20 08:41:46;;;;;;;7.37;5.30;;;18.20;80.10;;;;;;5004615;28;20210;-61
2023/04/20 08:44:14;;;;;;;8.37;5.17;;;18.50;80.20;;;;;;5009839;28;20198;-61
2023/04/20 08:46:45;;;;;;;7.87;5.10;;;18.80;78.40;;;;;;5003955;28;20703;-62
2023/04/20 08:49:15;;;;;;;5.70;5.10;;;19.10;78.20;;;;;;5011393;28;20550;-61
2023/04/20 08:51:43;;;;;;;6.93;4.63;;;19.40;77.30;;;;;;5007032;28;21370;-61
2023/04/20 08:54:11;;;;;;;6.80;4.63;;;19.60;75.30;;;;;;5003025;28;20207;-62
2023/04/20 08:56:43;;;;;;;7.17;5.17;;;19.70;73.60;;;;;;5004399;28;20265;-61
2023/04/20 08:59:12;;;;;;;7.87;5.00;;;19.60;73.40;;;;;;5005555;28;20199;-61
2023/04/20 09:01:41;;;;;;;9.00;5.30;;;19.50;73.40;;;;;;5001992;28;20216;-61
2023/04/20 09:04:35;;;;;;;7.93;6.07;;;19.30;72.90;;;;;;5002486;28;20214;-61
2023/04/20 09:07:02;;;;;;;6.60;5.43;;;19.20;73.40;;;;;;5006427;28;20318;-61
2023/04/20 09:09:29;;;;;;;8.47;5.23;;;19.00;73.60;;;;;;5002992;28;20300;-61
2023/04/20 09:12:13;;;;;;;6.50;5.90;;;19.00;75.30;;;;;;4997110;28;20266;-61
2023/04/20 09:14:45;;;;;;;8.53;5.20;;;19.00;75.70;;;;;;5005907;28;20234;-61
2023/04/20 09:17:14;;;;;;;8.60;5.70;;;19.00;75.70;;;;;;5000775;28;20200;-61
2023/04/20 09:19:43;;;;;;;6.20;4.87;;;19.10;76.00;;;;;;5004239;28;20682;-61
2023/04/20 09:22:10;;;;;;;6.57;5.37;;;19.10;75.80;;;;;;5005580;28;20207;-61
2023/04/20 09:24:40;;;;;;;5.80;5.20;;;19.30;75.30;;;;;;5004701;28;20207;-61
2023/04/20 09:27:15;;;;;;;7.53;5.87;;;19.50;75.30;;;;;;5002547;28;20219;-61
2023/04/20 09:29:43;;;;;;;5.13;4.47;;;19.80;73.60;;;;;;5004927;28;20235;-61
2023/04/20 09:32:22;;;;;;;7.20;5.07;;;19.90;72.50;;;;;;5004542;28;20256;-61
2023/04/20 09:34:49;;;;;;;6.43;5.53;;;19.90;72.70;;;;;;5002013;28;20537;-61
2023/04/20 09:37:16;;;;;;;7.13;5.20;;;19.90;73.20;;;;;;5002781;28;20281;-61
2023/04/20 09:39:44;;;;;;;6.30;5.70;;;20.00;72.80;;;;;;5032725;28;20302;-61
2023/04/20 09:42:13;;;;;;;10.00;5.83;;;20.00;72.60;;;;;;5004394;28;20198;-61
2023/04/20 09:44:40;;;;;;;7.30;5.60;;;20.00;71.30;;;;;;5002764;28;20302;-61
2023/04/20 09:47:08;;;;;;;8.50;5.83;;;20.00;70.90;;;;;;5007631;28;20230;-61
2023/04/20 09:49:42;;;;;;;6.33;5.60;;;19.90;72.00;;;;;;5000725;28;20220;-61
2023/04/20 09:52:12;;;;;;;7.33;5.57;;;19.80;72.80;;;;;;5008315;28;20287;-61
2023/04/20 09:54:39;;;;;;;5.53;5.03;;;20.00;73.30;;;;;;5007689;28;20205;-62
2023/04/20 09:57:06;;;;;;;6.03;5.27;;;20.10;71.00;;;;;;5012050;28;20237;-61
2023/04/20 09:59:33;;;;;;;8.07;5.47;;;20.10;70.60;;;;;;5006995;28;20238;-61
2023/04/20 10:02:00;;;;;;;6.23;5.63;;;20.10;70.90;;;;;;5001895;28;20220;-61
2023/04/20 10:04:28;;;;;;;6.33;5.57;;;20.20;72.30;;;;;;5008406;28;20290;-61
2023/04/20 10:07:02;;;;;;;6.83;6.13;;;20.30;71.40;;;;;;5006924;28;20222;-61
2023/04/20 10:09:31;;;;;;;6.40;5.73;;;20.50;73.40;;;;;;5006250;28;20231;-61
2023/04/20 10:12:06;;;;;;;6.37;5.77;;;20.80;69.70;;;;;;5010120;28;20232;-61
2023/04/20 10:14:34;;;;;;;8.57;5.57;;;21.00;69.10;;;;;;5005473;28;20283;-62
2023/04/20 10:17:07;;;;;;;8.03;6.93;;;21.10;69.10;;;;;;5012511;28;20217;-61
2023/04/20 10:19:45;;;;;;;7.20;6.30;;;21.10;69.30;;;;;;5006712;28;20262;-61
2023/04/20 10:22:29;;;;;;;9.00;6.33;;;21.00;69.00;;;;;;5001719;28;20216;-61
2023/04/20 10:24:56;;;;;;;6.67;5.77;;;20.90;69.20;;;;;;5013701;28;20567;-61
2023/04/20 10:27:23;;;;;;;7.90;6.80;;;20.80;70.10;;;;;;5006443;28;20196;-61
2023/04/20 10:29:50;;;;;;;7.77;5.70;;;20.70;69.30;;;;;;5006865;28;20211;-61
2023/04/20 10:32:25;;;;;;;7.13;5.83;;;20.60;69.20;;;;;;5007621;28;20223;-61
2023/04/20 10:35:01;;;;;;;8.63;6.53;;;20.40;69.20;;;;;;5009139;28;20203;-61
2023/04/20 10:37:28;;;;;;;9.47;6.93;;;20.30;70.60;;;;;;5006584;28;20268;-62
2023/04/20 10:39:55;;;;;;;11.37;7.10;;;20.20;71.20;;;;;;5004560;28;20203;-62
2023/04/20 10:42:22;;;;;;;8.80;6.57;;;20.10;71.90;;;;;;5006842;28;20559;-61
2023/04/20 10:44:53;;;;;;;7.30;6.03;;;20.10;71.40;;;;;;5000717;28;20557;-62
2023/04/20 10:47:31;;;;;;;10.27;6.43;;;20.10;71.00;;;;;;5006922;28;20204;-61
2023/04/20 10:50:11;;;;;;;8.10;7.27;;;20.00;71.90;;;;;;5003581;28;20212;-61
2023/04/20 10:52:40;;;;;;;7.80;6.40;;;20.00;72.10;;;;;;5008548;28;20201;-61
2023/04/20 10:55:19;;;;;;;7.23;6.53;;;20.10;72.20;;;;;;5006424;28;20262;-61
2023/04/20 10:57:47;;;;;;;7.50;6.67;;;20.10;72.30;;;;;;5019945;28;20603;-61
2023/04/20 11:00:25;;;;;;;11.13;6.40;;;20.10;72.80;;;;;;5002804;28;20290;-61
2023/04/20 11:02:55;;;;;;;9.07;6.67;;;20.10;71.70;;;;;;5010455;28;20203;-61
2023/04/20 11:05:24;;;;;;;7.20;6.50;;;20.30;72.40;;;;;;5002974;28;20849;-61
2023/04/20 11:07:55;;;;;;;8.07;6.97;;;20.50;72.70;;;;;;5000694;28;20584;-61
2023/04/20 11:10:37;;;;;;;7.87;6.43;;;20.70;72.00;;;;;;5006980;28;20606;-61
2023/04/20 11:13:04;;;;;;;7.03;6.33;;;21.00;70.90;;;;;;5012148;28;20220;-62
2023/04/20 11:15:32;;;;;;;9.50;7.10;;;21.30;71.70;;;;;;4998028;28;20196;-61
2023/04/20 11:18:10;;;;;;;8.27;6.97;;;21.50;69.40;;;;;;5008139;28;20218;-61
2023/04/20 11:20:49;;;;;;;9.23;7.77;;;21.50;67.80;;;;;;5002482;28;20275;-61
2023/04/20 11:23:19;;;;;;;7.73;7.00;;;21.30;68.40;;;;;;5008302;28;20200;-61
2023/04/20 11:25:55;;;;;;;9.10;8.03;;;21.10;69.80;;;;;;5004858;28;20226;-61
2023/04/20 11:28:22;;;;;;;8.40;7.50;;;21.00;69.60;;;;;;5008544;28;20223;-61
2023/04/20 11:30:51;;;;;;;10.37;8.40;;;20.70;70.10;;;;;;5003725;28;20262;-61
2023/04/20 11:33:29;;;;;;;7.83;7.10;;;20.60;71.40;;;;;;5005486;28;20287;-61
2023/04/20 11:35:58;;;;;;;8.63;7.73;;;20.40;72.10;;;;;;5008527;28;20188;-61
2023/04/20 11:38:32;;;;;;;8.77;7.83;;;20.40;72.70;;;;;;5005577;28;20200;-61
2023/04/20 11:41:06;;;;;;;10.03;8.27;;;20.30;73.10;;;;;;5004310;28;20209;-61
2023/04/20 11:43:34;;;;;;;7.93;7.13;;;20.30;71.90;;;;;;5005875;28;20215;-61
2023/04/20 11:46:02;;;;;;;10.53;7.37;;;20.40;74.00;;;;;;5005106;28;20322;-61
2023/04/20 11:48:32;;;;;;;8.77;6.63;;;20.70;72.00;;;;;;5003317;28;20220;-61
2023/04/20 11:50:59;;;;;;;7.87;7.03;;;21.00;71.40;;;;;;5002158;28;20322;-61
2023/04/20 11:53:26;;;;;;;8.03;7.23;;;21.20;70.10;;;;;;5004469;28;20197;-62
2023/04/20 11:55:53;;;;;;;9.17;7.40;;;21.30;68.40;;;;;;5008724;28;20296;-62
2023/04/20 11:58:20;;;;;;;8.10;7.23;;;21.20;68.80;;;;;;5001880;28;20206;-61
2023/04/20 12:00:47;;;;;;;10.77;7.30;;;21.00;69.60;;;;;;5001241;28;20296;-61
2023/04/20 12:03:14;;;;;;;9.57;7.23;;;20.90;68.70;;;;;;5005391;28;20244;-62
2023/04/20 12:05:42;;;;;;;7.60;6.83;;;20.60;69.50;;;;;;5004629;28;20203;-61
2023/04/20 12:08:09;;;;;;;8.50;7.67;;;20.40;70.40;;;;;;5001965;28;20694;-62
2023/04/20 12:10:36;;;;;;;11.60;7.97;;;20.20;70.90;;;;;;5005702;28;20577;-62
2023/04/20 12:13:03;;;;;;;10.83;7.90;;;20.10;71.50;;;;;;5006516;28;20246;-61
2023/04/20 12:15:30;;;;;;;9.47;7.97;;;20.00;72.80;;;;;;5003932;28;20286;-61
2023/04/20 12:17:57;;;;;;;8.23;7.47;;;19.90;72.20;;;;;;5005143;28;20262;-61
2023/04/20 12:20:24;;;;;;;8.60;7.43;;;19.80;72.20;;;;;;5002586;28;20205;-61
2023/04/20 12:22:51;;;;;;;8.87;7.63;;;19.70;72.90;;;;;;5007075;28;20219;-61
2023/04/20 12:25:19;;;;;;;9.10;7.97;;;19.70;73.40;;;;;;5003161;28;20204;-61
2023/04/20 12:27:45;;;;;;;9.17;7.50;;;19.70;73.20;;;;;;5005236;28;20629;-61
2023/04/20 12:30:15;;;;;;;8.07;7.23;;;19.60;72.60;;;;;;4998425;28;20219;-61
2023/04/20 12:32:42;;;;;;;8.03;6.57;;;19.50;73.70;;;;;;5004011;28;20216;-61
2023/04/20 12:35:09;;;;;;;8.00;7.20;;;19.60;74.00;;;;;;4999058;28;20289;-61
2023/04/20 12:37:36;;;;;;;9.57;6.33;;;19.60;74.50;;;;;;5005454;28;20195;-61
2023/04/20 12:40:05;;;;;;;10.37;7.40;;;19.60;73.80;;;;;;5004698;28;20262;-61
2023/04/20 12:42:32;;;;;;;7.30;6.60;;;19.60;72.70;;;;;;5004220;28;20223;-61
2023/04/20 12:44:59;;;;;;;7.57;6.87;;;19.60;72.40;;;;;;5005625;28;20368;-61
2023/04/20 12:47:26;;;;;;;8.57;7.40;;;19.60;72.60;;;;;;5007298;28;20286;-61
2023/04/20 12:49:53;;;;;;;9.23;7.20;;;19.60;74.00;;;;;;5003545;28;20530;-61
2023/04/20 12:52:21;;;;;;;8.20;7.37;;;19.90;72.90;;;;;;5004523;28;20257;-61
2023/04/20 12:54:48;;;;;;;11.93;7.30;;;20.00;73.70;;;;;;5002637;28;20192;-62